sensor_id;sensor_type;location;lat;lon;timestamp;P1;durP1;ratioP1;P2;durP2;ratioP2
76073;SDS011;64776;42.636;24.358;2022-12-07T00:02:39;25.92;;;8.93;;
76073;SDS011;64776;42.636;24.358;2022-12-07T00:05:40;19.15;;;6.32;;
76073;SDS011;64776;42.636;24.358;2022-12-07T00:08:41;16.90;;;5.75;;
76073;SDS011;64776;42.636;24.358;2022-12-07T00:11:42;17.48;;;5.70;;
76073;SDS011;64776;42.636;24.358;2022-12-07T00:14:46;21.25;;;7.05;;
76073;SDS011;64776;42.636;24.358;2022-12-07T00:17:47;19.10;;;7.00;;
76073;SDS011;64776;42.636;24.358;2022-12-07T00:20:47;21.17;;;6.50;;
76073;SDS011;64776;42.636;24.358;2022-12-07T00:23:49;18.63;;;6.63;;
76073;SDS011;64776;42.636;24.358;2022-12-07T00:26:50;20.45;;;6.85;;
76073;SDS011;64776;42.636;24.358;2022-12-07T00:29:53;30.10;;;8.82;;
76073;SDS011;64776;42.636;24.358;2022-12-07T00:32:53;26.75;;;10.25;;
76073;SDS011;64776;42.636;24.358;2022-12-07T00:35:55;27.25;;;10.80;;
76073;SDS011;64776;42.636;24.358;2022-12-07T00:38:57;35.40;;;12.18;;
76073;SDS011;64776;42.636;24.358;2022-12-07T00:41:58;37.95;;;13.70;;
76073;SDS011;64776;42.636;24.358;2022-12-07T00:45:01;34.33;;;11.52;;
76073;SDS011;64776;42.636;24.358;2022-12-07T00:48:02;36.25;;;13.23;;
76073;SDS011;64776;42.636;24.358;2022-12-07T00:51:03;46.13;;;18.40;;
76073;SDS011;64776;42.636;24.358;2022-12-07T00:54:05;33.80;;;11.70;;
76073;SDS011;64776;42.636;24.358;2022-12-07T00:57:05;27.10;;;9.50;;
76073;SDS011;64776;42.636;24.358;2022-12-07T01:00:08;21.27;;;8.65;;
76073;SDS011;64776;42.636;24.358;2022-12-07T01:03:10;26.88;;;10.02;;
76073;SDS011;64776;42.636;24.358;2022-12-07T01:06:14;22.20;;;5.95;;
76073;SDS011;64776;42.636;24.358;2022-12-07T01:09:15;23.33;;;7.55;;
76073;SDS011;64776;42.636;24.358;2022-12-07T01:12:16;21.67;;;6.63;;
76073;SDS011;64776;42.636;24.358;2022-12-07T01:15:18;20.52;;;6.63;;
76073;SDS011;64776;42.636;24.358;2022-12-07T01:18:19;25.35;;;8.00;;
76073;SDS011;64776;42.636;24.358;2022-12-07T01:21:21;30.13;;;10.57;;
76073;SDS011;64776;42.636;24.358;2022-12-07T01:24:23;27.60;;;9.43;;
76073;SDS011;64776;42.636;24.358;2022-12-07T01:27:24;18.13;;;6.53;;
76073;SDS011;64776;42.636;24.358;2022-12-07T01:30:26;14.73;;;5.35;;
76073;SDS011;64776;42.636;24.358;2022-12-07T01:33:27;16.75;;;6.60;;
76073;SDS011;64776;42.636;24.358;2022-12-07T01:36:29;17.73;;;6.30;;
76073;SDS011;64776;42.636;24.358;2022-12-07T01:39:31;19.80;;;6.43;;
76073;SDS011;64776;42.636;24.358;2022-12-07T01:42:32;19.52;;;7.25;;
76073;SDS011;64776;42.636;24.358;2022-12-07T01:45:38;17.08;;;7.05;;
76073;SDS011;64776;42.636;24.358;2022-12-07T01:48:40;22.52;;;7.50;;
76073;SDS011;64776;42.636;24.358;2022-12-07T01:51:43;19.92;;;7.18;;
76073;SDS011;64776;42.636;24.358;2022-12-07T01:54:46;13.00;;;5.35;;
76073;SDS011;64776;42.636;24.358;2022-12-07T01:57:50;14.98;;;5.10;;
76073;SDS011;64776;42.636;24.358;2022-12-07T02:00:55;15.73;;;6.45;;
76073;SDS011;64776;42.636;24.358;2022-12-07T02:03:56;16.55;;;6.55;;
76073;SDS011;64776;42.636;24.358;2022-12-07T02:06:58;16.95;;;7.53;;
76073;SDS011;64776;42.636;24.358;2022-12-07T02:10:11;19.98;;;8.30;;
76073;SDS011;64776;42.636;24.358;2022-12-07T02:13:13;30.15;;;10.05;;
76073;SDS011;64776;42.636;24.358;2022-12-07T02:16:21;34.28;;;12.45;;
76073;SDS011;64776;42.636;24.358;2022-12-07T02:26:49;20.85;;;7.07;;
76073;SDS011;64776;42.636;24.358;2022-12-07T02:30:12;18.60;;;6.32;;
76073;SDS011;64776;42.636;24.358;2022-12-07T02:33:16;13.55;;;5.13;;
76073;SDS011;64776;42.636;24.358;2022-12-07T02:36:22;14.27;;;4.90;;
76073;SDS011;64776;42.636;24.358;2022-12-07T02:39:28;10.38;;;4.18;;
76073;SDS011;64776;42.636;24.358;2022-12-07T02:42:37;12.00;;;5.00;;
76073;SDS011;64776;42.636;24.358;2022-12-07T02:45:44;8.57;;;3.88;;
76073;SDS011;64776;42.636;24.358;2022-12-07T02:48:47;16.67;;;6.70;;
76073;SDS011;64776;42.636;24.358;2022-12-07T02:51:49;18.20;;;7.18;;
76073;SDS011;64776;42.636;24.358;2022-12-07T02:54:50;13.65;;;5.43;;
76073;SDS011;64776;42.636;24.358;2022-12-07T02:57:54;11.63;;;4.22;;
76073;SDS011;64776;42.636;24.358;2022-12-07T03:01:27;10.20;;;3.40;;
76073;SDS011;64776;42.636;24.358;2022-12-07T03:04:35;18.30;;;6.28;;
76073;SDS011;64776;42.636;24.358;2022-12-07T03:07:48;20.02;;;7.65;;
76073;SDS011;64776;42.636;24.358;2022-12-07T03:10:56;14.68;;;6.03;;
76073;SDS011;64776;42.636;24.358;2022-12-07T03:13:59;16.20;;;5.30;;
76073;SDS011;64776;42.636;24.358;2022-12-07T03:17:09;13.52;;;5.43;;
76073;SDS011;64776;42.636;24.358;2022-12-07T03:20:14;15.98;;;6.18;;
76073;SDS011;64776;42.636;24.358;2022-12-07T03:23:19;14.13;;;4.65;;
76073;SDS011;64776;42.636;24.358;2022-12-07T03:26:24;9.65;;;4.35;;
76073;SDS011;64776;42.636;24.358;2022-12-07T03:29:31;8.05;;;3.22;;
76073;SDS011;64776;42.636;24.358;2022-12-07T03:32:39;13.50;;;6.25;;
76073;SDS011;64776;42.636;24.358;2022-12-07T03:35:45;17.38;;;8.00;;
76073;SDS011;64776;42.636;24.358;2022-12-07T03:38:50;13.30;;;4.73;;
76073;SDS011;64776;42.636;24.358;2022-12-07T03:41:58;17.88;;;6.63;;
76073;SDS011;64776;42.636;24.358;2022-12-07T03:45:02;15.63;;;5.88;;
76073;SDS011;64776;42.636;24.358;2022-12-07T03:48:07;14.23;;;5.57;;
76073;SDS011;64776;42.636;24.358;2022-12-07T03:51:16;16.45;;;6.45;;
76073;SDS011;64776;42.636;24.358;2022-12-07T03:54:22;19.85;;;8.20;;
76073;SDS011;64776;42.636;24.358;2022-12-07T03:57:30;18.25;;;7.45;;
76073;SDS011;64776;42.636;24.358;2022-12-07T04:00:33;24.15;;;9.63;;
76073;SDS011;64776;42.636;24.358;2022-12-07T04:03:36;18.13;;;7.53;;
76073;SDS011;64776;42.636;24.358;2022-12-07T04:06:36;18.98;;;7.22;;
76073;SDS011;64776;42.636;24.358;2022-12-07T04:09:37;23.83;;;12.02;;
76073;SDS011;64776;42.636;24.358;2022-12-07T04:12:38;15.85;;;5.72;;
76073;SDS011;64776;42.636;24.358;2022-12-07T04:15:39;17.05;;;6.07;;
76073;SDS011;64776;42.636;24.358;2022-12-07T04:18:41;14.82;;;6.03;;
76073;SDS011;64776;42.636;24.358;2022-12-07T04:21:42;17.70;;;6.90;;
76073;SDS011;64776;42.636;24.358;2022-12-07T04:24:43;15.35;;;5.97;;
76073;SDS011;64776;42.636;24.358;2022-12-07T04:27:44;23.55;;;8.15;;
76073;SDS011;64776;42.636;24.358;2022-12-07T04:30:45;23.90;;;11.82;;
76073;SDS011;64776;42.636;24.358;2022-12-07T04:33:47;22.05;;;9.82;;
76073;SDS011;64776;42.636;24.358;2022-12-07T04:36:48;19.05;;;7.97;;
76073;SDS011;64776;42.636;24.358;2022-12-07T04:39:49;15.57;;;6.28;;
76073;SDS011;64776;42.636;24.358;2022-12-07T04:42:50;28.00;;;10.30;;
76073;SDS011;64776;42.636;24.358;2022-12-07T04:45:50;24.10;;;10.98;;
76073;SDS011;64776;42.636;24.358;2022-12-07T04:48:53;16.02;;;7.07;;
76073;SDS011;64776;42.636;24.358;2022-12-07T04:51:54;19.48;;;8.07;;
76073;SDS011;64776;42.636;24.358;2022-12-07T04:54:55;27.08;;;9.88;;
76073;SDS011;64776;42.636;24.358;2022-12-07T04:57:56;23.85;;;10.93;;
76073;SDS011;64776;42.636;24.358;2022-12-07T05:00:57;24.67;;;11.07;;
76073;SDS011;64776;42.636;24.358;2022-12-07T05:03:59;33.35;;;11.40;;
76073;SDS011;64776;42.636;24.358;2022-12-07T05:07:00;20.48;;;9.73;;
76073;SDS011;64776;42.636;24.358;2022-12-07T05:10:01;19.70;;;9.15;;
76073;SDS011;64776;42.636;24.358;2022-12-07T05:13:01;20.73;;;7.78;;
76073;SDS011;64776;42.636;24.358;2022-12-07T05:16:02;21.20;;;9.73;;
76073;SDS011;64776;42.636;24.358;2022-12-07T05:19:05;24.65;;;9.63;;
76073;SDS011;64776;42.636;24.358;2022-12-07T05:22:07;14.07;;;5.95;;
76073;SDS011;64776;42.636;24.358;2022-12-07T05:25:08;13.32;;;5.22;;
76073;SDS011;64776;42.636;24.358;2022-12-07T05:28:09;13.43;;;5.63;;
76073;SDS011;64776;42.636;24.358;2022-12-07T05:31:10;21.42;;;8.63;;
76073;SDS011;64776;42.636;24.358;2022-12-07T05:34:12;13.60;;;6.13;;
76073;SDS011;64776;42.636;24.358;2022-12-07T05:37:13;14.50;;;6.35;;
76073;SDS011;64776;42.636;24.358;2022-12-07T05:40:14;15.95;;;6.88;;
76073;SDS011;64776;42.636;24.358;2022-12-07T05:43:16;17.88;;;6.82;;
76073;SDS011;64776;42.636;24.358;2022-12-07T05:46:17;38.00;;;12.70;;
76073;SDS011;64776;42.636;24.358;2022-12-07T05:49:19;47.95;;;17.08;;
76073;SDS011;64776;42.636;24.358;2022-12-07T05:52:20;56.13;;;23.15;;
76073;SDS011;64776;42.636;24.358;2022-12-07T05:55:22;57.08;;;22.23;;
76073;SDS011;64776;42.636;24.358;2022-12-07T05:58:23;63.15;;;24.80;;
76073;SDS011;64776;42.636;24.358;2022-12-07T06:01:23;68.07;;;28.30;;
76073;SDS011;64776;42.636;24.358;2022-12-07T06:04:27;79.63;;;34.63;;
76073;SDS011;64776;42.636;24.358;2022-12-07T06:07:29;79.78;;;34.72;;
76073;SDS011;64776;42.636;24.358;2022-12-07T06:10:30;72.05;;;33.30;;
76073;SDS011;64776;42.636;24.358;2022-12-07T06:13:31;76.70;;;33.55;;
76073;SDS011;64776;42.636;24.358;2022-12-07T06:16:32;82.97;;;38.08;;
76073;SDS011;64776;42.636;24.358;2022-12-07T06:19:34;65.32;;;30.02;;
76073;SDS011;64776;42.636;24.358;2022-12-07T06:22:35;69.82;;;33.65;;
76073;SDS011;64776;42.636;24.358;2022-12-07T06:25:35;56.13;;;26.90;;
76073;SDS011;64776;42.636;24.358;2022-12-07T06:28:36;64.97;;;29.20;;
76073;SDS011;64776;42.636;24.358;2022-12-07T06:31:37;140.10;;;49.47;;
76073;SDS011;64776;42.636;24.358;2022-12-07T06:34:39;126.55;;;46.13;;
76073;SDS011;64776;42.636;24.358;2022-12-07T06:37:40;74.72;;;29.90;;
76073;SDS011;64776;42.636;24.358;2022-12-07T06:40:41;100.93;;;41.25;;
76073;SDS011;64776;42.636;24.358;2022-12-07T06:43:42;66.53;;;27.23;;
76073;SDS011;64776;42.636;24.358;2022-12-07T06:46:43;59.95;;;24.50;;
76073;SDS011;64776;42.636;24.358;2022-12-07T06:49:45;240.20;;;89.38;;
76073;SDS011;64776;42.636;24.358;2022-12-07T06:52:46;114.45;;;44.25;;
76073;SDS011;64776;42.636;24.358;2022-12-07T06:55:47;81.47;;;34.45;;
76073;SDS011;64776;42.636;24.358;2022-12-07T06:58:47;59.45;;;26.38;;
76073;SDS011;64776;42.636;24.358;2022-12-07T07:01:48;64.25;;;28.67;;
76073;SDS011;64776;42.636;24.358;2022-12-07T07:04:51;49.42;;;24.35;;
76073;SDS011;64776;42.636;24.358;2022-12-07T07:07:51;53.80;;;23.73;;
76073;SDS011;64776;42.636;24.358;2022-12-07T07:10:52;64.75;;;30.45;;
76073;SDS011;64776;42.636;24.358;2022-12-07T07:13:53;44.95;;;24.92;;
76073;SDS011;64776;42.636;24.358;2022-12-07T07:16:54;53.90;;;27.67;;
76073;SDS011;64776;42.636;24.358;2022-12-07T07:19:56;50.53;;;26.13;;
76073;SDS011;64776;42.636;24.358;2022-12-07T07:22:57;77.85;;;38.58;;
76073;SDS011;64776;42.636;24.358;2022-12-07T07:25:57;60.08;;;29.13;;
76073;SDS011;64776;42.636;24.358;2022-12-07T07:28:58;73.55;;;37.15;;
76073;SDS011;64776;42.636;24.358;2022-12-07T07:31:59;73.82;;;35.92;;
76073;SDS011;64776;42.636;24.358;2022-12-07T07:35:02;59.13;;;31.25;;
76073;SDS011;64776;42.636;24.358;2022-12-07T07:38:03;77.85;;;33.72;;
76073;SDS011;64776;42.636;24.358;2022-12-07T07:41:04;75.70;;;35.23;;
76073;SDS011;64776;42.636;24.358;2022-12-07T07:44:05;72.10;;;35.10;;
76073;SDS011;64776;42.636;24.358;2022-12-07T07:47:05;70.60;;;35.30;;
76073;SDS011;64776;42.636;24.358;2022-12-07T07:50:08;70.85;;;35.78;;
76073;SDS011;64776;42.636;24.358;2022-12-07T07:53:10;98.18;;;54.25;;
76073;SDS011;64776;42.636;24.358;2022-12-07T07:56:10;100.32;;;53.75;;
76073;SDS011;64776;42.636;24.358;2022-12-07T07:59:11;83.28;;;44.20;;
76073;SDS011;64776;42.636;24.358;2022-12-07T08:02:13;138.68;;;64.63;;
76073;SDS011;64776;42.636;24.358;2022-12-07T08:05:17;114.32;;;53.10;;
76073;SDS011;64776;42.636;24.358;2022-12-07T08:08:17;81.00;;;36.38;;
76073;SDS011;64776;42.636;24.358;2022-12-07T08:11:18;67.07;;;34.65;;
76073;SDS011;64776;42.636;24.358;2022-12-07T08:14:19;61.05;;;31.95;;
76073;SDS011;64776;42.636;24.358;2022-12-07T08:17:20;64.53;;;30.80;;
76073;SDS011;64776;42.636;24.358;2022-12-07T08:20:22;52.92;;;25.35;;
76073;SDS011;64776;42.636;24.358;2022-12-07T08:23:23;40.15;;;21.00;;
76073;SDS011;64776;42.636;24.358;2022-12-07T08:26:24;55.22;;;24.95;;
76073;SDS011;64776;42.636;24.358;2022-12-07T08:29:25;27.60;;;13.45;;
76073;SDS011;64776;42.636;24.358;2022-12-07T08:32:26;35.70;;;16.52;;
76073;SDS011;64776;42.636;24.358;2022-12-07T08:35:28;102.88;;;42.10;;
76073;SDS011;64776;42.636;24.358;2022-12-07T08:38:29;53.40;;;20.75;;
76073;SDS011;64776;42.636;24.358;2022-12-07T08:41:29;131.07;;;44.40;;
76073;SDS011;64776;42.636;24.358;2022-12-07T08:44:30;76.25;;;29.33;;
76073;SDS011;64776;42.636;24.358;2022-12-07T08:47:31;74.18;;;30.27;;
76073;SDS011;64776;42.636;24.358;2022-12-07T08:50:34;36.45;;;15.05;;
76073;SDS011;64776;42.636;24.358;2022-12-07T08:53:37;48.67;;;21.52;;
76073;SDS011;64776;42.636;24.358;2022-12-07T08:56:39;81.88;;;35.25;;
76073;SDS011;64776;42.636;24.358;2022-12-07T08:59:41;56.17;;;23.70;;
76073;SDS011;64776;42.636;24.358;2022-12-07T09:02:42;30.95;;;12.35;;
76073;SDS011;64776;42.636;24.358;2022-12-07T09:05:45;33.70;;;14.15;;
76073;SDS011;64776;42.636;24.358;2022-12-07T09:08:46;25.10;;;11.43;;
76073;SDS011;64776;42.636;24.358;2022-12-07T09:11:51;61.05;;;27.75;;
76073;SDS011;64776;42.636;24.358;2022-12-07T09:14:51;25.42;;;9.48;;
76073;SDS011;64776;42.636;24.358;2022-12-07T09:17:52;40.58;;;19.13;;
76073;SDS011;64776;42.636;24.358;2022-12-07T09:20:55;35.42;;;14.40;;
76073;SDS011;64776;42.636;24.358;2022-12-07T09:23:56;52.38;;;21.55;;
76073;SDS011;64776;42.636;24.358;2022-12-07T09:26:57;41.38;;;16.50;;
76073;SDS011;64776;42.636;24.358;2022-12-07T09:29:58;67.68;;;20.13;;
76073;SDS011;64776;42.636;24.358;2022-12-07T09:32:58;27.25;;;12.15;;
76073;SDS011;64776;42.636;24.358;2022-12-07T09:36:01;17.17;;;7.22;;
76073;SDS011;64776;42.636;24.358;2022-12-07T09:39:03;26.73;;;9.55;;
76073;SDS011;64776;42.636;24.358;2022-12-07T09:42:04;39.58;;;21.95;;
76073;SDS011;64776;42.636;24.358;2022-12-07T09:45:07;17.42;;;8.30;;
76073;SDS011;64776;42.636;24.358;2022-12-07T09:48:16;25.17;;;12.30;;
76073;SDS011;64776;42.636;24.358;2022-12-07T09:51:22;14.00;;;6.47;;
76073;SDS011;64776;42.636;24.358;2022-12-07T09:54:23;16.98;;;7.88;;
76073;SDS011;64776;42.636;24.358;2022-12-07T09:57:27;12.45;;;4.97;;
76073;SDS011;64776;42.636;24.358;2022-12-07T10:00:30;43.67;;;18.30;;
76073;SDS011;64776;42.636;24.358;2022-12-07T10:03:31;49.25;;;17.85;;
76073;SDS011;64776;42.636;24.358;2022-12-07T10:06:33;24.40;;;10.38;;
76073;SDS011;64776;42.636;24.358;2022-12-07T10:09:34;47.20;;;17.05;;
76073;SDS011;64776;42.636;24.358;2022-12-07T10:12:44;57.33;;;19.08;;
76073;SDS011;64776;42.636;24.358;2022-12-07T10:15:54;35.42;;;12.93;;
76073;SDS011;64776;42.636;24.358;2022-12-07T10:18:56;14.63;;;5.22;;
76073;SDS011;64776;42.636;24.358;2022-12-07T10:22:02;24.17;;;7.82;;
76073;SDS011;64776;42.636;24.358;2022-12-07T10:25:08;16.13;;;5.25;;
76073;SDS011;64776;42.636;24.358;2022-12-07T10:28:18;17.33;;;7.35;;
76073;SDS011;64776;42.636;24.358;2022-12-07T10:31:19;17.48;;;7.32;;
76073;SDS011;64776;42.636;24.358;2022-12-07T10:34:23;31.05;;;11.13;;
76073;SDS011;64776;42.636;24.358;2022-12-07T10:37:27;23.80;;;10.32;;
76073;SDS011;64776;42.636;24.358;2022-12-07T10:40:32;18.50;;;8.38;;
76073;SDS011;64776;42.636;24.358;2022-12-07T10:43:36;15.65;;;6.03;;
76073;SDS011;64776;42.636;24.358;2022-12-07T10:46:45;21.25;;;9.30;;
76073;SDS011;64776;42.636;24.358;2022-12-07T10:50:14;14.85;;;7.60;;
76073;SDS011;64776;42.636;24.358;2022-12-07T10:53:46;18.42;;;8.85;;
76073;SDS011;64776;42.636;24.358;2022-12-07T10:57:02;24.65;;;9.15;;
76073;SDS011;64776;42.636;24.358;2022-12-07T11:00:20;32.78;;;12.95;;
76073;SDS011;64776;42.636;24.358;2022-12-07T11:06:55;14.18;;;6.10;;
76073;SDS011;64776;42.636;24.358;2022-12-07T11:10:04;14.38;;;6.00;;
76073;SDS011;64776;42.636;24.358;2022-12-07T11:16:34;83.68;;;26.02;;
76073;SDS011;64776;42.636;24.358;2022-12-07T11:19:48;88.40;;;30.67;;
76073;SDS011;64776;42.636;24.358;2022-12-07T11:23:02;59.67;;;18.50;;
76073;SDS011;64776;42.636;24.358;2022-12-07T11:26:11;52.20;;;19.60;;
76073;SDS011;64776;42.636;24.358;2022-12-07T11:29:28;37.15;;;16.45;;
76073;SDS011;64776;42.636;24.358;2022-12-07T11:32:53;30.42;;;11.85;;
76073;SDS011;64776;42.636;24.358;2022-12-07T11:36:06;39.25;;;17.00;;
76073;SDS011;64776;42.636;24.358;2022-12-07T11:39:15;49.10;;;19.50;;
76073;SDS011;64776;42.636;24.358;2022-12-07T11:42:27;83.38;;;31.83;;
76073;SDS011;64776;42.636;24.358;2022-12-07T11:45:32;59.07;;;25.47;;
76073;SDS011;64776;42.636;24.358;2022-12-07T11:48:35;24.85;;;10.63;;
76073;SDS011;64776;42.636;24.358;2022-12-07T11:51:40;29.60;;;10.63;;
76073;SDS011;64776;42.636;24.358;2022-12-07T11:54:43;21.77;;;9.32;;
76073;SDS011;64776;42.636;24.358;2022-12-07T11:57:48;20.02;;;8.20;;
76073;SDS011;64776;42.636;24.358;2022-12-07T12:00:55;14.43;;;7.10;;
76073;SDS011;64776;42.636;24.358;2022-12-07T12:04:13;21.15;;;8.80;;
76073;SDS011;64776;42.636;24.358;2022-12-07T12:07:32;21.60;;;9.52;;
76073;SDS011;64776;42.636;24.358;2022-12-07T12:10:40;14.65;;;6.57;;
76073;SDS011;64776;42.636;24.358;2022-12-07T12:14:02;14.35;;;5.53;;
76073;SDS011;64776;42.636;24.358;2022-12-07T12:17:26;12.90;;;4.28;;
76073;SDS011;64776;42.636;24.358;2022-12-07T12:20:40;16.92;;;5.00;;
76073;SDS011;64776;42.636;24.358;2022-12-07T12:23:45;38.88;;;15.82;;
76073;SDS011;64776;42.636;24.358;2022-12-07T12:26:50;12.70;;;5.85;;
76073;SDS011;64776;42.636;24.358;2022-12-07T12:29:56;19.83;;;9.00;;
76073;SDS011;64776;42.636;24.358;2022-12-07T12:33:01;20.17;;;9.27;;
76073;SDS011;64776;42.636;24.358;2022-12-07T12:36:21;20.25;;;8.95;;
76073;SDS011;64776;42.636;24.358;2022-12-07T12:39:24;19.63;;;9.20;;
76073;SDS011;64776;42.636;24.358;2022-12-07T12:42:42;21.63;;;9.80;;
76073;SDS011;64776;42.636;24.358;2022-12-07T12:48:45;20.73;;;9.20;;
76073;SDS011;64776;42.636;24.358;2022-12-07T12:51:47;23.80;;;10.70;;
76073;SDS011;64776;42.636;24.358;2022-12-07T12:54:57;22.40;;;10.82;;
76073;SDS011;64776;42.636;24.358;2022-12-07T13:04:50;33.20;;;17.65;;
76073;SDS011;64776;42.636;24.358;2022-12-07T13:07:57;30.00;;;14.40;;
76073;SDS011;64776;42.636;24.358;2022-12-07T13:11:15;31.38;;;15.43;;
76073;SDS011;64776;42.636;24.358;2022-12-07T13:17:57;26.70;;;12.45;;
76073;SDS011;64776;42.636;24.358;2022-12-07T13:24:00;28.27;;;11.65;;
76073;SDS011;64776;42.636;24.358;2022-12-07T13:27:07;36.60;;;13.77;;
76073;SDS011;64776;42.636;24.358;2022-12-07T13:30:13;29.88;;;12.93;;
76073;SDS011;64776;42.636;24.358;2022-12-07T13:33:17;16.65;;;7.07;;
76073;SDS011;64776;42.636;24.358;2022-12-07T13:36:19;18.38;;;8.77;;
76073;SDS011;64776;42.636;24.358;2022-12-07T13:39:24;20.35;;;10.10;;
76073;SDS011;64776;42.636;24.358;2022-12-07T13:42:27;22.30;;;10.25;;
76073;SDS011;64776;42.636;24.358;2022-12-07T13:45:29;65.30;;;30.48;;
76073;SDS011;64776;42.636;24.358;2022-12-07T13:48:33;53.10;;;25.48;;
76073;SDS011;64776;42.636;24.358;2022-12-07T13:51:36;67.88;;;33.80;;
76073;SDS011;64776;42.636;24.358;2022-12-07T13:54:43;82.35;;;42.38;;
76073;SDS011;64776;42.636;24.358;2022-12-07T13:57:44;111.18;;;50.70;;
76073;SDS011;64776;42.636;24.358;2022-12-07T14:03:52;81.70;;;36.28;;
76073;SDS011;64776;42.636;24.358;2022-12-07T14:06:53;78.20;;;32.22;;
76073;SDS011;64776;42.636;24.358;2022-12-07T14:09:54;40.30;;;19.10;;
76073;SDS011;64776;42.636;24.358;2022-12-07T14:12:58;53.24;;;24.04;;
76073;SDS011;64776;42.636;24.358;2022-12-07T14:15:59;73.50;;;32.05;;
76073;SDS011;64776;42.636;24.358;2022-12-07T14:19:04;126.85;;;47.88;;
76073;SDS011;64776;42.636;24.358;2022-12-07T14:22:06;102.35;;;39.88;;
76073;SDS011;64776;42.636;24.358;2022-12-07T14:25:15;496.83;;;233.95;;
76073;SDS011;64776;42.636;24.358;2022-12-07T14:28:25;110.22;;;49.70;;
76073;SDS011;64776;42.636;24.358;2022-12-07T14:31:27;85.35;;;40.88;;
76073;SDS011;64776;42.636;24.358;2022-12-07T14:34:29;36.70;;;17.25;;
76073;SDS011;64776;42.636;24.358;2022-12-07T14:37:30;23.30;;;10.13;;
76073;SDS011;64776;42.636;24.358;2022-12-07T14:40:31;62.67;;;24.73;;
76073;SDS011;64776;42.636;24.358;2022-12-07T14:43:32;98.03;;;40.28;;
76073;SDS011;64776;42.636;24.358;2022-12-07T14:46:33;47.22;;;25.52;;
76073;SDS011;64776;42.636;24.358;2022-12-07T14:49:35;66.55;;;35.13;;
76073;SDS011;64776;42.636;24.358;2022-12-07T14:52:36;70.60;;;38.72;;
76073;SDS011;64776;42.636;24.358;2022-12-07T14:55:38;42.40;;;18.83;;
76073;SDS011;64776;42.636;24.358;2022-12-07T14:58:39;53.10;;;23.75;;
76073;SDS011;64776;42.636;24.358;2022-12-07T15:01:40;150.93;;;49.30;;
76073;SDS011;64776;42.636;24.358;2022-12-07T15:04:42;75.55;;;26.35;;
76073;SDS011;64776;42.636;24.358;2022-12-07T15:07:43;48.78;;;20.95;;
76073;SDS011;64776;42.636;24.358;2022-12-07T15:10:45;47.97;;;21.00;;
76073;SDS011;64776;42.636;24.358;2022-12-07T15:13:46;59.80;;;27.20;;
76073;SDS011;64776;42.636;24.358;2022-12-07T15:16:47;46.17;;;29.40;;
76073;SDS011;64776;42.636;24.358;2022-12-07T15:19:49;20.90;;;10.27;;
76073;SDS011;64776;42.636;24.358;2022-12-07T15:22:49;34.88;;;19.30;;
76073;SDS011;64776;42.636;24.358;2022-12-07T15:25:50;34.47;;;16.15;;
76073;SDS011;64776;42.636;24.358;2022-12-07T15:28:52;45.17;;;23.63;;
76073;SDS011;64776;42.636;24.358;2022-12-07T15:31:53;181.90;;;76.65;;
76073;SDS011;64776;42.636;24.358;2022-12-07T15:34:55;44.75;;;22.05;;
76073;SDS011;64776;42.636;24.358;2022-12-07T15:37:56;100.57;;;40.42;;
76073;SDS011;64776;42.636;24.358;2022-12-07T15:40:57;30.08;;;13.32;;
76073;SDS011;64776;42.636;24.358;2022-12-07T15:43:58;35.83;;;16.38;;
76073;SDS011;64776;42.636;24.358;2022-12-07T15:46:59;40.65;;;17.70;;
76073;SDS011;64776;42.636;24.358;2022-12-07T15:50:02;62.15;;;26.30;;
76073;SDS011;64776;42.636;24.358;2022-12-07T15:53:03;126.90;;;54.25;;
76073;SDS011;64776;42.636;24.358;2022-12-07T15:56:05;61.67;;;27.20;;
76073;SDS011;64776;42.636;24.358;2022-12-07T15:59:07;63.15;;;27.38;;
76073;SDS011;64776;42.636;24.358;2022-12-07T16:02:08;84.00;;;36.78;;
76073;SDS011;64776;42.636;24.358;2022-12-07T16:05:10;67.60;;;29.02;;
76073;SDS011;64776;42.636;24.358;2022-12-07T16:08:11;49.03;;;21.77;;
76073;SDS011;64776;42.636;24.358;2022-12-07T16:11:12;97.68;;;39.88;;
76073;SDS011;64776;42.636;24.358;2022-12-07T16:14:13;58.63;;;28.13;;
76073;SDS011;64776;42.636;24.358;2022-12-07T16:17:14;101.85;;;54.10;;
76073;SDS011;64776;42.636;24.358;2022-12-07T16:20:16;49.33;;;21.13;;
76073;SDS011;64776;42.636;24.358;2022-12-07T16:23:17;44.50;;;19.20;;
76073;SDS011;64776;42.636;24.358;2022-12-07T16:26:19;142.43;;;69.40;;
76073;SDS011;64776;42.636;24.358;2022-12-07T16:29:21;117.80;;;59.08;;
76073;SDS011;64776;42.636;24.358;2022-12-07T16:32:22;74.78;;;36.20;;
76073;SDS011;64776;42.636;24.358;2022-12-07T16:35:25;40.05;;;21.98;;
76073;SDS011;64776;42.636;24.358;2022-12-07T16:38:26;50.47;;;25.23;;
76073;SDS011;64776;42.636;24.358;2022-12-07T16:41:27;39.38;;;21.92;;
76073;SDS011;64776;42.636;24.358;2022-12-07T16:44:27;56.90;;;27.38;;
76073;SDS011;64776;42.636;24.358;2022-12-07T16:47:28;68.65;;;29.40;;
76073;SDS011;64776;42.636;24.358;2022-12-07T16:50:30;68.32;;;30.33;;
76073;SDS011;64776;42.636;24.358;2022-12-07T16:53:31;187.88;;;69.05;;
76073;SDS011;64776;42.636;24.358;2022-12-07T16:56:32;116.45;;;50.10;;
76073;SDS011;64776;42.636;24.358;2022-12-07T16:59:33;136.75;;;59.22;;
76073;SDS011;64776;42.636;24.358;2022-12-07T17:02:34;119.53;;;52.00;;
76073;SDS011;64776;42.636;24.358;2022-12-07T17:05:38;89.80;;;40.80;;
76073;SDS011;64776;42.636;24.358;2022-12-07T17:08:40;58.28;;;26.55;;
76073;SDS011;64776;42.636;24.358;2022-12-07T17:11:42;42.45;;;19.20;;
76073;SDS011;64776;42.636;24.358;2022-12-07T17:14:44;137.43;;;53.47;;
76073;SDS011;64776;42.636;24.358;2022-12-07T17:17:45;94.70;;;42.47;;
76073;SDS011;64776;42.636;24.358;2022-12-07T17:20:52;91.70;;;41.95;;
76073;SDS011;64776;42.636;24.358;2022-12-07T17:23:53;73.10;;;36.83;;
76073;SDS011;64776;42.636;24.358;2022-12-07T17:26:54;77.35;;;40.05;;
76073;SDS011;64776;42.636;24.358;2022-12-07T17:29:54;92.82;;;41.08;;
76073;SDS011;64776;42.636;24.358;2022-12-07T17:32:55;88.28;;;42.45;;
76073;SDS011;64776;42.636;24.358;2022-12-07T17:35:57;112.65;;;54.05;;
76073;SDS011;64776;42.636;24.358;2022-12-07T17:38:58;116.32;;;53.83;;
76073;SDS011;64776;42.636;24.358;2022-12-07T17:41:59;85.03;;;42.95;;
76073;SDS011;64776;42.636;24.358;2022-12-07T17:45:00;79.40;;;38.55;;
76073;SDS011;64776;42.636;24.358;2022-12-07T17:48:01;130.10;;;49.45;;
76073;SDS011;64776;42.636;24.358;2022-12-07T17:51:04;102.45;;;46.35;;
76073;SDS011;64776;42.636;24.358;2022-12-07T17:54:05;152.93;;;72.72;;
76073;SDS011;64776;42.636;24.358;2022-12-07T17:57:06;103.13;;;47.00;;
76073;SDS011;64776;42.636;24.358;2022-12-07T18:00:07;79.03;;;38.30;;
76073;SDS011;64776;42.636;24.358;2022-12-07T18:03:09;78.63;;;36.40;;
76073;SDS011;64776;42.636;24.358;2022-12-07T18:06:11;161.02;;;69.32;;
76073;SDS011;64776;42.636;24.358;2022-12-07T18:09:12;277.50;;;116.88;;
76073;SDS011;64776;42.636;24.358;2022-12-07T18:12:13;225.45;;;98.72;;
76073;SDS011;64776;42.636;24.358;2022-12-07T18:15:14;143.18;;;65.75;;